Terminal Aerodrome Forecast
Issued by NWS

Home | Current Version | Previous Version | Text Only | Print | Product List | Glossary On
Versions: 1 2 3 4 5 6 7 8 9 10 11 12 13 14 15 16 17 18 19 20 21
447
FTUS42 KTAE 201309 AAA
TAFVLD
TAF AMD
KVLD 201309Z 2013/2112 21004KT 1/2SM FG OVC002
     FM201400 21006KT 3SM BR OVC004
     FM201600 20006KT P6SM BKN030
     FM202100 20007KT P6SM BKN050
     FM210400 19003KT 3SM BR OVC007=

USA.gov is the U.S. government's official web portal to all federal, state and local government web resources and services.